sensor_id;sensor_type;location;lat;lon;timestamp;P1;durP1;ratioP1;P2;durP2;ratioP2
72198;SDS011;72266;51.056;16.880;2024-02-26T00:00:15;28.70;;;11.20;;
72198;SDS011;72266;51.056;16.880;2024-02-26T00:03:06;28.30;;;12.50;;
72198;SDS011;72266;51.056;16.880;2024-02-26T00:05:37;29.30;;;12.70;;
72198;SDS011;72266;51.056;16.880;2024-02-26T00:08:12;25.60;;;10.90;;
72198;SDS011;72266;51.056;16.880;2024-02-26T00:10:44;30.00;;;11.60;;
72198;SDS011;72266;51.056;16.880;2024-02-26T00:13:14;36.70;;;12.80;;
72198;SDS011;72266;51.056;16.880;2024-02-26T00:15:44;36.80;;;12.20;;
72198;SDS011;72266;51.056;16.880;2024-02-26T00:18:14;37.70;;;12.80;;
72198;SDS011;72266;51.056;16.880;2024-02-26T00:20:44;32.70;;;11.70;;
72198;SDS011;72266;51.056;16.880;2024-02-26T00:23:15;34.00;;;13.10;;
72198;SDS011;72266;51.056;16.880;2024-02-26T00:25:45;28.00;;;11.40;;
72198;SDS011;72266;51.056;16.880;2024-02-26T00:28:15;32.00;;;13.90;;
72198;SDS011;72266;51.056;16.880;2024-02-26T00:30:44;29.90;;;12.40;;
72198;SDS011;72266;51.056;16.880;2024-02-26T00:33:16;31.00;;;12.40;;
72198;SDS011;72266;51.056;16.880;2024-02-26T00:35:47;25.70;;;10.90;;
72198;SDS011;72266;51.056;16.880;2024-02-26T00:38:19;29.40;;;12.00;;
72198;SDS011;72266;51.056;16.880;2024-02-26T00:40:50;30.90;;;11.50;;
72198;SDS011;72266;51.056;16.880;2024-02-26T00:43:20;25.00;;;10.90;;
72198;SDS011;72266;51.056;16.880;2024-02-26T00:45:50;28.20;;;11.30;;
72198;SDS011;72266;51.056;16.880;2024-02-26T00:48:20;24.90;;;10.50;;
72198;SDS011;72266;51.056;16.880;2024-02-26T00:50:51;26.50;;;11.10;;
72198;SDS011;72266;51.056;16.880;2024-02-26T00:53:21;29.10;;;11.50;;
72198;SDS011;72266;51.056;16.880;2024-02-26T00:55:52;29.00;;;12.40;;
72198;SDS011;72266;51.056;16.880;2024-02-26T00:58:22;33.10;;;12.70;;
72198;SDS011;72266;51.056;16.880;2024-02-26T01:00:52;33.60;;;12.90;;
72198;SDS011;72266;51.056;16.880;2024-02-26T01:03:23;33.70;;;13.20;;
72198;SDS011;72266;51.056;16.880;2024-02-26T01:05:53;32.40;;;12.70;;
72198;SDS011;72266;51.056;16.880;2024-02-26T01:08:27;28.40;;;11.50;;
72198;SDS011;72266;51.056;16.880;2024-02-26T01:10:56;26.70;;;10.40;;
72198;SDS011;72266;51.056;16.880;2024-02-26T01:13:26;25.70;;;10.40;;
72198;SDS011;72266;51.056;16.880;2024-02-26T01:15:56;25.10;;;10.20;;
72198;SDS011;72266;51.056;16.880;2024-02-26T01:18:26;24.60;;;11.10;;
72198;SDS011;72266;51.056;16.880;2024-02-26T01:20:57;26.90;;;11.80;;
72198;SDS011;72266;51.056;16.880;2024-02-26T01:23:29;29.80;;;11.70;;
72198;SDS011;72266;51.056;16.880;2024-02-26T01:25:59;25.10;;;10.60;;
72198;SDS011;72266;51.056;16.880;2024-02-26T01:28:30;27.70;;;11.70;;
72198;SDS011;72266;51.056;16.880;2024-02-26T01:31:00;27.60;;;11.90;;
72198;SDS011;72266;51.056;16.880;2024-02-26T01:33:31;25.00;;;11.10;;
72198;SDS011;72266;51.056;16.880;2024-02-26T01:36:01;29.60;;;12.70;;
72198;SDS011;72266;51.056;16.880;2024-02-26T01:38:32;27.40;;;11.40;;
72198;SDS011;72266;51.056;16.880;2024-02-26T01:41:02;29.20;;;12.30;;
72198;SDS011;72266;51.056;16.880;2024-02-26T01:43:32;30.30;;;12.80;;
72198;SDS011;72266;51.056;16.880;2024-02-26T01:46:05;31.60;;;12.80;;
72198;SDS011;72266;51.056;16.880;2024-02-26T01:48:37;28.10;;;12.80;;
72198;SDS011;72266;51.056;16.880;2024-02-26T01:51:10;27.00;;;12.30;;
72198;SDS011;72266;51.056;16.880;2024-02-26T01:53:42;28.60;;;12.40;;
72198;SDS011;72266;51.056;16.880;2024-02-26T01:56:12;29.00;;;12.80;;
72198;SDS011;72266;51.056;16.880;2024-02-26T01:58:43;28.70;;;13.20;;
72198;SDS011;72266;51.056;16.880;2024-02-26T02:01:13;30.40;;;13.00;;
72198;SDS011;72266;51.056;16.880;2024-02-26T02:03:46;31.30;;;12.90;;
72198;SDS011;72266;51.056;16.880;2024-02-26T02:06:17;33.60;;;13.70;;
72198;SDS011;72266;51.056;16.880;2024-02-26T02:08:48;30.10;;;14.00;;
72198;SDS011;72266;51.056;16.880;2024-02-26T02:11:19;31.60;;;13.70;;
72198;SDS011;72266;51.056;16.880;2024-02-26T02:13:50;31.90;;;14.80;;
72198;SDS011;72266;51.056;16.880;2024-02-26T02:16:20;32.20;;;14.30;;
72198;SDS011;72266;51.056;16.880;2024-02-26T02:18:50;36.00;;;14.50;;
72198;SDS011;72266;51.056;16.880;2024-02-26T02:21:21;35.80;;;14.60;;
72198;SDS011;72266;51.056;16.880;2024-02-26T02:23:50;29.00;;;12.10;;
72198;SDS011;72266;51.056;16.880;2024-02-26T02:26:20;34.90;;;14.50;;
72198;SDS011;72266;51.056;16.880;2024-02-26T02:28:50;31.10;;;13.60;;
72198;SDS011;72266;51.056;16.880;2024-02-26T02:31:21;31.90;;;14.30;;
72198;SDS011;72266;51.056;16.880;2024-02-26T02:33:50;40.90;;;15.70;;
72198;SDS011;72266;51.056;16.880;2024-02-26T02:36:21;36.80;;;15.80;;
72198;SDS011;72266;51.056;16.880;2024-02-26T02:38:51;38.70;;;16.20;;
72198;SDS011;72266;51.056;16.880;2024-02-26T02:41:22;32.70;;;13.20;;
72198;SDS011;72266;51.056;16.880;2024-02-26T02:43:56;33.60;;;13.60;;
72198;SDS011;72266;51.056;16.880;2024-02-26T02:46:26;29.70;;;14.80;;
72198;SDS011;72266;51.056;16.880;2024-02-26T02:48:56;30.60;;;13.90;;
72198;SDS011;72266;51.056;16.880;2024-02-26T02:51:27;33.10;;;14.50;;
72198;SDS011;72266;51.056;16.880;2024-02-26T02:53:57;34.90;;;15.00;;
72198;SDS011;72266;51.056;16.880;2024-02-26T02:56:28;33.40;;;14.80;;
72198;SDS011;72266;51.056;16.880;2024-02-26T02:58:59;38.70;;;14.70;;
72198;SDS011;72266;51.056;16.880;2024-02-26T03:01:29;34.90;;;15.20;;
72198;SDS011;72266;51.056;16.880;2024-02-26T03:03:59;30.10;;;14.30;;
72198;SDS011;72266;51.056;16.880;2024-02-26T03:06:28;35.10;;;14.70;;
72198;SDS011;72266;51.056;16.880;2024-02-26T03:08:58;34.10;;;16.00;;
72198;SDS011;72266;51.056;16.880;2024-02-26T03:11:29;36.80;;;15.70;;
72198;SDS011;72266;51.056;16.880;2024-02-26T03:13:59;34.80;;;14.90;;
72198;SDS011;72266;51.056;16.880;2024-02-26T03:16:28;28.20;;;12.40;;
72198;SDS011;72266;51.056;16.880;2024-02-26T03:18:58;43.40;;;19.00;;
72198;SDS011;72266;51.056;16.880;2024-02-26T03:21:28;44.20;;;20.70;;
72198;SDS011;72266;51.056;16.880;2024-02-26T03:23:58;37.80;;;17.20;;
72198;SDS011;72266;51.056;16.880;2024-02-26T03:26:28;37.00;;;15.90;;
72198;SDS011;72266;51.056;16.880;2024-02-26T03:28:59;32.80;;;14.90;;
72198;SDS011;72266;51.056;16.880;2024-02-26T03:31:30;30.80;;;13.70;;
72198;SDS011;72266;51.056;16.880;2024-02-26T03:34:02;29.90;;;13.50;;
72198;SDS011;72266;51.056;16.880;2024-02-26T03:36:32;32.70;;;13.50;;
72198;SDS011;72266;51.056;16.880;2024-02-26T03:39:02;29.30;;;12.50;;
72198;SDS011;72266;51.056;16.880;2024-02-26T03:41:38;30.10;;;12.40;;
72198;SDS011;72266;51.056;16.880;2024-02-26T03:44:10;27.60;;;13.10;;
72198;SDS011;72266;51.056;16.880;2024-02-26T03:46:40;34.50;;;16.00;;
72198;SDS011;72266;51.056;16.880;2024-02-26T03:49:10;36.10;;;16.40;;
72198;SDS011;72266;51.056;16.880;2024-02-26T03:51:41;32.30;;;15.60;;
72198;SDS011;72266;51.056;16.880;2024-02-26T03:54:11;31.20;;;14.20;;
72198;SDS011;72266;51.056;16.880;2024-02-26T03:56:42;30.40;;;13.90;;
72198;SDS011;72266;51.056;16.880;2024-02-26T03:59:11;35.80;;;15.60;;
72198;SDS011;72266;51.056;16.880;2024-02-26T04:01:45;33.20;;;14.70;;
72198;SDS011;72266;51.056;16.880;2024-02-26T04:04:15;30.70;;;13.90;;
72198;SDS011;72266;51.056;16.880;2024-02-26T04:06:45;31.30;;;14.50;;
72198;SDS011;72266;51.056;16.880;2024-02-26T04:09:19;34.10;;;14.70;;
72198;SDS011;72266;51.056;16.880;2024-02-26T04:11:48;35.50;;;14.60;;
72198;SDS011;72266;51.056;16.880;2024-02-26T04:14:18;31.50;;;15.40;;
72198;SDS011;72266;51.056;16.880;2024-02-26T04:16:47;36.00;;;15.00;;
72198;SDS011;72266;51.056;16.880;2024-02-26T04:19:20;32.40;;;14.70;;
72198;SDS011;72266;51.056;16.880;2024-02-26T04:21:49;35.00;;;15.50;;
72198;SDS011;72266;51.056;16.880;2024-02-26T04:24:20;31.60;;;15.00;;
72198;SDS011;72266;51.056;16.880;2024-02-26T04:26:50;32.30;;;14.60;;
72198;SDS011;72266;51.056;16.880;2024-02-26T04:29:20;33.60;;;14.10;;
72198;SDS011;72266;51.056;16.880;2024-02-26T04:31:50;31.90;;;15.50;;
72198;SDS011;72266;51.056;16.880;2024-02-26T04:34:20;31.30;;;13.90;;
72198;SDS011;72266;51.056;16.880;2024-02-26T04:36:50;32.80;;;15.80;;
72198;SDS011;72266;51.056;16.880;2024-02-26T04:39:20;35.60;;;16.00;;
72198;SDS011;72266;51.056;16.880;2024-02-26T04:41:50;32.50;;;15.30;;
72198;SDS011;72266;51.056;16.880;2024-02-26T04:44:20;35.10;;;14.80;;
72198;SDS011;72266;51.056;16.880;2024-02-26T04:46:50;31.30;;;14.20;;
72198;SDS011;72266;51.056;16.880;2024-02-26T04:49:20;30.70;;;14.20;;
72198;SDS011;72266;51.056;16.880;2024-02-26T04:51:50;32.70;;;14.20;;
72198;SDS011;72266;51.056;16.880;2024-02-26T04:54:20;34.60;;;18.10;;
72198;SDS011;72266;51.056;16.880;2024-02-26T04:56:50;34.40;;;15.10;;
72198;SDS011;72266;51.056;16.880;2024-02-26T04:59:21;31.30;;;14.30;;
72198;SDS011;72266;51.056;16.880;2024-02-26T05:01:54;31.00;;;14.00;;
72198;SDS011;72266;51.056;16.880;2024-02-26T05:04:26;33.10;;;14.30;;
72198;SDS011;72266;51.056;16.880;2024-02-26T05:06:57;30.10;;;12.70;;
72198;SDS011;72266;51.056;16.880;2024-02-26T05:09:28;33.00;;;14.00;;
72198;SDS011;72266;51.056;16.880;2024-02-26T05:12:02;31.20;;;13.30;;
72198;SDS011;72266;51.056;16.880;2024-02-26T05:14:41;28.90;;;12.90;;
72198;SDS011;72266;51.056;16.880;2024-02-26T05:17:12;34.80;;;14.10;;
72198;SDS011;72266;51.056;16.880;2024-02-26T05:19:43;30.10;;;13.50;;
72198;SDS011;72266;51.056;16.880;2024-02-26T05:22:13;30.70;;;14.60;;
72198;SDS011;72266;51.056;16.880;2024-02-26T05:24:48;29.90;;;12.90;;
72198;SDS011;72266;51.056;16.880;2024-02-26T05:27:20;27.30;;;12.50;;
72198;SDS011;72266;51.056;16.880;2024-02-26T05:29:50;30.30;;;13.20;;
72198;SDS011;72266;51.056;16.880;2024-02-26T05:32:25;33.20;;;14.10;;
72198;SDS011;72266;51.056;16.880;2024-02-26T05:34:55;29.50;;;13.30;;
72198;SDS011;72266;51.056;16.880;2024-02-26T05:37:25;32.30;;;13.80;;
72198;SDS011;72266;51.056;16.880;2024-02-26T05:39:56;31.60;;;13.60;;
72198;SDS011;72266;51.056;16.880;2024-02-26T05:42:26;27.70;;;12.00;;
72198;SDS011;72266;51.056;16.880;2024-02-26T05:44:56;28.80;;;12.90;;
72198;SDS011;72266;51.056;16.880;2024-02-26T05:47:27;31.20;;;13.90;;
72198;SDS011;72266;51.056;16.880;2024-02-26T05:49:57;30.80;;;11.90;;
72198;SDS011;72266;51.056;16.880;2024-02-26T05:52:29;29.50;;;12.90;;
72198;SDS011;72266;51.056;16.880;2024-02-26T05:55:00;31.00;;;13.30;;
72198;SDS011;72266;51.056;16.880;2024-02-26T05:57:31;36.60;;;15.00;;
72198;SDS011;72266;51.056;16.880;2024-02-26T06:00:01;35.20;;;14.10;;
72198;SDS011;72266;51.056;16.880;2024-02-26T06:02:39;25.00;;;10.80;;
72198;SDS011;72266;51.056;16.880;2024-02-26T06:05:12;30.60;;;12.10;;
72198;SDS011;72266;51.056;16.880;2024-02-26T06:07:42;27.70;;;12.30;;
72198;SDS011;72266;51.056;16.880;2024-02-26T06:10:15;27.00;;;12.00;;
72198;SDS011;72266;51.056;16.880;2024-02-26T06:12:49;29.60;;;12.30;;
72198;SDS011;72266;51.056;16.880;2024-02-26T06:15:19;29.00;;;12.50;;
72198;SDS011;72266;51.056;16.880;2024-02-26T06:17:49;35.40;;;14.90;;
72198;SDS011;72266;51.056;16.880;2024-02-26T06:20:20;35.40;;;14.90;;
72198;SDS011;72266;51.056;16.880;2024-02-26T06:22:51;36.00;;;15.50;;
72198;SDS011;72266;51.056;16.880;2024-02-26T06:25:21;37.80;;;15.20;;
72198;SDS011;72266;51.056;16.880;2024-02-26T06:27:51;34.40;;;14.80;;
72198;SDS011;72266;51.056;16.880;2024-02-26T06:30:21;34.60;;;14.90;;
72198;SDS011;72266;51.056;16.880;2024-02-26T06:32:51;34.80;;;15.10;;
72198;SDS011;72266;51.056;16.880;2024-02-26T06:35:22;33.20;;;14.20;;
72198;SDS011;72266;51.056;16.880;2024-02-26T06:37:52;35.30;;;14.30;;
72198;SDS011;72266;51.056;16.880;2024-02-26T06:40:23;30.50;;;14.00;;
72198;SDS011;72266;51.056;16.880;2024-02-26T06:42:53;30.90;;;14.00;;
72198;SDS011;72266;51.056;16.880;2024-02-26T06:45:24;33.50;;;15.20;;
72198;SDS011;72266;51.056;16.880;2024-02-26T06:47:56;33.80;;;14.40;;
72198;SDS011;72266;51.056;16.880;2024-02-26T06:50:27;31.20;;;13.70;;
72198;SDS011;72266;51.056;16.880;2024-02-26T06:52:57;29.70;;;13.80;;
72198;SDS011;72266;51.056;16.880;2024-02-26T06:55:27;34.20;;;13.30;;
72198;SDS011;72266;51.056;16.880;2024-02-26T06:57:58;26.00;;;11.60;;
72198;SDS011;72266;51.056;16.880;2024-02-26T07:00:29;29.10;;;13.10;;
72198;SDS011;72266;51.056;16.880;2024-02-26T07:02:59;30.00;;;13.70;;
72198;SDS011;72266;51.056;16.880;2024-02-26T07:05:31;34.00;;;14.40;;
72198;SDS011;72266;51.056;16.880;2024-02-26T07:08:01;32.30;;;14.00;;
72198;SDS011;72266;51.056;16.880;2024-02-26T07:10:32;31.60;;;13.80;;
72198;SDS011;72266;51.056;16.880;2024-02-26T07:13:02;32.10;;;14.40;;
72198;SDS011;72266;51.056;16.880;2024-02-26T07:15:32;31.10;;;13.70;;
72198;SDS011;72266;51.056;16.880;2024-02-26T07:18:02;34.50;;;14.60;;
72198;SDS011;72266;51.056;16.880;2024-02-26T07:20:35;31.30;;;15.00;;
72198;SDS011;72266;51.056;16.880;2024-02-26T07:23:07;30.20;;;14.70;;
72198;SDS011;72266;51.056;16.880;2024-02-26T07:25:42;30.30;;;13.30;;
72198;SDS011;72266;51.056;16.880;2024-02-26T07:28:19;32.40;;;14.10;;
72198;SDS011;72266;51.056;16.880;2024-02-26T07:30:49;31.50;;;13.70;;
72198;SDS011;72266;51.056;16.880;2024-02-26T07:33:19;29.00;;;13.80;;
72198;SDS011;72266;51.056;16.880;2024-02-26T07:35:51;27.90;;;12.70;;
72198;SDS011;72266;51.056;16.880;2024-02-26T07:38:21;30.00;;;14.90;;
72198;SDS011;72266;51.056;16.880;2024-02-26T07:41:10;32.30;;;14.40;;
72198;SDS011;72266;51.056;16.880;2024-02-26T07:43:40;31.80;;;14.00;;
72198;SDS011;72266;51.056;16.880;2024-02-26T07:46:11;26.30;;;11.60;;
72198;SDS011;72266;51.056;16.880;2024-02-26T07:48:42;28.70;;;13.70;;
72198;SDS011;72266;51.056;16.880;2024-02-26T07:51:13;31.20;;;15.30;;
72198;SDS011;72266;51.056;16.880;2024-02-26T07:53:43;29.20;;;13.50;;
72198;SDS011;72266;51.056;16.880;2024-02-26T07:56:14;26.10;;;11.50;;
72198;SDS011;72266;51.056;16.880;2024-02-26T07:58:44;31.00;;;13.60;;
72198;SDS011;72266;51.056;16.880;2024-02-26T08:01:14;28.60;;;13.70;;
72198;SDS011;72266;51.056;16.880;2024-02-26T08:03:47;29.40;;;14.20;;
72198;SDS011;72266;51.056;16.880;2024-02-26T08:06:17;31.30;;;14.70;;
72198;SDS011;72266;51.056;16.880;2024-02-26T08:08:48;25.90;;;11.10;;
72198;SDS011;72266;51.056;16.880;2024-02-26T08:11:18;30.20;;;14.40;;
72198;SDS011;72266;51.056;16.880;2024-02-26T08:13:48;28.60;;;13.90;;
72198;SDS011;72266;51.056;16.880;2024-02-26T08:16:18;29.30;;;14.10;;
72198;SDS011;72266;51.056;16.880;2024-02-26T08:18:50;33.10;;;15.10;;
72198;SDS011;72266;51.056;16.880;2024-02-26T08:21:21;27.40;;;13.60;;
72198;SDS011;72266;51.056;16.880;2024-02-26T08:23:51;28.60;;;12.80;;
72198;SDS011;72266;51.056;16.880;2024-02-26T08:26:21;29.30;;;12.80;;
72198;SDS011;72266;51.056;16.880;2024-02-26T08:28:52;28.50;;;13.60;;
72198;SDS011;72266;51.056;16.880;2024-02-26T08:31:25;27.40;;;12.60;;
72198;SDS011;72266;51.056;16.880;2024-02-26T08:33:59;30.10;;;12.60;;
72198;SDS011;72266;51.056;16.880;2024-02-26T08:36:32;28.90;;;13.30;;
72198;SDS011;72266;51.056;16.880;2024-02-26T08:39:03;28.30;;;13.50;;
72198;SDS011;72266;51.056;16.880;2024-02-26T08:41:34;33.30;;;13.40;;
72198;SDS011;72266;51.056;16.880;2024-02-26T08:44:06;28.30;;;13.10;;
72198;SDS011;72266;51.056;16.880;2024-02-26T08:46:37;23.80;;;12.00;;
72198;SDS011;72266;51.056;16.880;2024-02-26T08:49:10;30.10;;;12.90;;
72198;SDS011;72266;51.056;16.880;2024-02-26T08:51:42;28.90;;;13.20;;
72198;SDS011;72266;51.056;16.880;2024-02-26T08:54:15;31.10;;;13.00;;
72198;SDS011;72266;51.056;16.880;2024-02-26T08:56:47;29.10;;;12.50;;
72198;SDS011;72266;51.056;16.880;2024-02-26T08:59:17;27.00;;;11.90;;
72198;SDS011;72266;51.056;16.880;2024-02-26T09:01:52;26.70;;;11.70;;
72198;SDS011;72266;51.056;16.880;2024-02-26T09:04:24;28.00;;;12.80;;
72198;SDS011;72266;51.056;16.880;2024-02-26T09:06:57;25.00;;;12.40;;
72198;SDS011;72266;51.056;16.880;2024-02-26T09:09:27;24.10;;;12.10;;
72198;SDS011;72266;51.056;16.880;2024-02-26T09:12:01;26.70;;;12.20;;
72198;SDS011;72266;51.056;16.880;2024-02-26T09:14:33;23.90;;;11.80;;
72198;SDS011;72266;51.056;16.880;2024-02-26T09:17:03;25.70;;;12.80;;
72198;SDS011;72266;51.056;16.880;2024-02-26T09:19:41;28.80;;;12.20;;
72198;SDS011;72266;51.056;16.880;2024-02-26T09:22:19;22.60;;;10.20;;
72198;SDS011;72266;51.056;16.880;2024-02-26T09:24:50;22.20;;;10.70;;
72198;SDS011;72266;51.056;16.880;2024-02-26T09:27:22;22.00;;;9.70;;
72198;SDS011;72266;51.056;16.880;2024-02-26T09:29:56;22.40;;;10.60;;
72198;SDS011;72266;51.056;16.880;2024-02-26T09:32:28;22.60;;;10.40;;
72198;SDS011;72266;51.056;16.880;2024-02-26T09:34:59;23.20;;;10.90;;
72198;SDS011;72266;51.056;16.880;2024-02-26T09:37:29;20.40;;;10.70;;
72198;SDS011;72266;51.056;16.880;2024-02-26T09:40:01;16.40;;;7.70;;
72198;SDS011;72266;51.056;16.880;2024-02-26T09:42:32;21.50;;;9.80;;
72198;SDS011;72266;51.056;16.880;2024-02-26T09:45:02;20.10;;;9.30;;
72198;SDS011;72266;51.056;16.880;2024-02-26T09:47:38;18.00;;;9.10;;
72198;SDS011;72266;51.056;16.880;2024-02-26T09:50:11;15.70;;;7.00;;
72198;SDS011;72266;51.056;16.880;2024-02-26T09:52:42;17.20;;;7.80;;
72198;SDS011;72266;51.056;16.880;2024-02-26T09:55:13;17.30;;;7.90;;
72198;SDS011;72266;51.056;16.880;2024-02-26T09:57:48;16.30;;;7.40;;
72198;SDS011;72266;51.056;16.880;2024-02-26T10:00:24;14.50;;;7.00;;
72198;SDS011;72266;51.056;16.880;2024-02-26T10:02:58;15.10;;;6.40;;
72198;SDS011;72266;51.056;16.880;2024-02-26T10:05:28;15.00;;;6.90;;
72198;SDS011;72266;51.056;16.880;2024-02-26T10:07:59;15.80;;;7.10;;
72198;SDS011;72266;51.056;16.880;2024-02-26T10:10:29;15.50;;;7.30;;
72198;SDS011;72266;51.056;16.880;2024-02-26T10:13:00;17.10;;;7.40;;
72198;SDS011;72266;51.056;16.880;2024-02-26T10:15:32;16.70;;;7.20;;
72198;SDS011;72266;51.056;16.880;2024-02-26T10:18:04;13.50;;;6.40;;
72198;SDS011;72266;51.056;16.880;2024-02-26T10:20:36;16.30;;;6.20;;
72198;SDS011;72266;51.056;16.880;2024-02-26T10:23:10;16.30;;;6.40;;
72198;SDS011;72266;51.056;16.880;2024-02-26T10:25:46;15.00;;;6.60;;
72198;SDS011;72266;51.056;16.880;2024-02-26T10:28:22;13.90;;;5.70;;
72198;SDS011;72266;51.056;16.880;2024-02-26T10:30:54;13.80;;;6.50;;
72198;SDS011;72266;51.056;16.880;2024-02-26T10:33:24;14.60;;;6.70;;
72198;SDS011;72266;51.056;16.880;2024-02-26T10:35:54;15.10;;;6.10;;
72198;SDS011;72266;51.056;16.880;2024-02-26T10:38:25;12.60;;;5.70;;
72198;SDS011;72266;51.056;16.880;2024-02-26T10:40:55;12.60;;;6.10;;
72198;SDS011;72266;51.056;16.880;2024-02-26T10:43:25;10.90;;;4.50;;
72198;SDS011;72266;51.056;16.880;2024-02-26T10:45:56;12.10;;;5.20;;
72198;SDS011;72266;51.056;16.880;2024-02-26T10:48:25;11.80;;;5.30;;
72198;SDS011;72266;51.056;16.880;2024-02-26T10:50:56;11.90;;;4.60;;
72198;SDS011;72266;51.056;16.880;2024-02-26T10:53:28;13.20;;;5.30;;
72198;SDS011;72266;51.056;16.880;2024-02-26T10:56:00;12.50;;;5.70;;
72198;SDS011;72266;51.056;16.880;2024-02-26T10:58:33;12.20;;;5.40;;
72198;SDS011;72266;51.056;16.880;2024-02-26T11:01:19;11.90;;;5.10;;
72198;SDS011;72266;51.056;16.880;2024-02-26T11:03:55;13.50;;;5.30;;
72198;SDS011;72266;51.056;16.880;2024-02-26T11:06:30;13.40;;;4.70;;
72198;SDS011;72266;51.056;16.880;2024-02-26T11:09:15;11.80;;;5.10;;
72198;SDS011;72266;51.056;16.880;2024-02-26T11:11:46;13.20;;;5.10;;
72198;SDS011;72266;51.056;16.880;2024-02-26T11:14:18;13.30;;;5.00;;
72198;SDS011;72266;51.056;16.880;2024-02-26T11:16:52;11.90;;;5.00;;
72198;SDS011;72266;51.056;16.880;2024-02-26T11:19:29;11.10;;;4.20;;
72198;SDS011;72266;51.056;16.880;2024-02-26T11:22:10;16.40;;;4.80;;
72198;SDS011;72266;51.056;16.880;2024-02-26T11:24:52;12.20;;;4.00;;
72198;SDS011;72266;51.056;16.880;2024-02-26T11:27:26;9.50;;;3.70;;
72198;SDS011;72266;51.056;16.880;2024-02-26T11:29:59;9.00;;;3.60;;
72198;SDS011;72266;51.056;16.880;2024-02-26T11:32:35;11.20;;;4.10;;
72198;SDS011;72266;51.056;16.880;2024-02-26T11:35:18;9.40;;;3.30;;
72198;SDS011;72266;51.056;16.880;2024-02-26T11:37:54;9.60;;;3.30;;
72198;SDS011;72266;51.056;16.880;2024-02-26T11:40:26;10.20;;;3.80;;
72198;SDS011;72266;51.056;16.880;2024-02-26T11:42:59;11.20;;;3.80;;
72198;SDS011;72266;51.056;16.880;2024-02-26T11:45:59;9.70;;;3.40;;
72198;SDS011;72266;51.056;16.880;2024-02-26T11:48:36;8.60;;;2.70;;
72198;SDS011;72266;51.056;16.880;2024-02-26T11:51:20;8.60;;;3.20;;
72198;SDS011;72266;51.056;16.880;2024-02-26T11:53:59;9.30;;;3.00;;
72198;SDS011;72266;51.056;16.880;2024-02-26T11:56:30;9.60;;;3.10;;
72198;SDS011;72266;51.056;16.880;2024-02-26T11:59:09;9.70;;;3.20;;
72198;SDS011;72266;51.056;16.880;2024-02-26T12:01:45;10.40;;;3.40;;
72198;SDS011;72266;51.056;16.880;2024-02-26T12:04:19;8.10;;;2.70;;
72198;SDS011;72266;51.056;16.880;2024-02-26T12:06:56;9.00;;;3.30;;
72198;SDS011;72266;51.056;16.880;2024-02-26T12:09:36;7.60;;;2.80;;
72198;SDS011;72266;51.056;16.880;2024-02-26T12:12:10;8.00;;;2.60;;
72198;SDS011;72266;51.056;16.880;2024-02-26T12:14:53;7.70;;;2.80;;
72198;SDS011;72266;51.056;16.880;2024-02-26T12:17:25;11.30;;;3.20;;
72198;SDS011;72266;51.056;16.880;2024-02-26T12:19:56;12.00;;;3.30;;
72198;SDS011;72266;51.056;16.880;2024-02-26T12:22:40;9.30;;;3.70;;
72198;SDS011;72266;51.056;16.880;2024-02-26T12:25:13;9.90;;;3.40;;
72198;SDS011;72266;51.056;16.880;2024-02-26T12:27:44;9.10;;;3.30;;
72198;SDS011;72266;51.056;16.880;2024-02-26T12:30:14;13.80;;;4.40;;
72198;SDS011;72266;51.056;16.880;2024-02-26T12:32:45;8.50;;;2.70;;
72198;SDS011;72266;51.056;16.880;2024-02-26T12:35:16;8.40;;;2.80;;
72198;SDS011;72266;51.056;16.880;2024-02-26T12:37:47;8.30;;;2.80;;
72198;SDS011;72266;51.056;16.880;2024-02-26T12:40:19;9.10;;;2.60;;
72198;SDS011;72266;51.056;16.880;2024-02-26T12:42:50;9.00;;;3.00;;
72198;SDS011;72266;51.056;16.880;2024-02-26T12:45:23;12.70;;;3.60;;
72198;SDS011;72266;51.056;16.880;2024-02-26T12:47:56;8.80;;;3.20;;
72198;SDS011;72266;51.056;16.880;2024-02-26T12:50:28;10.00;;;3.30;;
72198;SDS011;72266;51.056;16.880;2024-02-26T12:53:00;9.30;;;3.40;;
72198;SDS011;72266;51.056;16.880;2024-02-26T12:55:30;10.60;;;3.10;;
72198;SDS011;72266;51.056;16.880;2024-02-26T12:58:03;11.30;;;3.50;;
72198;SDS011;72266;51.056;16.880;2024-02-26T13:00:36;7.60;;;2.80;;
72198;SDS011;72266;51.056;16.880;2024-02-26T13:03:11;9.80;;;3.10;;
72198;SDS011;72266;51.056;16.880;2024-02-26T13:05:45;10.30;;;3.00;;
72198;SDS011;72266;51.056;16.880;2024-02-26T13:08:18;8.00;;;2.70;;
72198;SDS011;72266;51.056;16.880;2024-02-26T13:10:48;8.40;;;2.50;;
72198;SDS011;72266;51.056;16.880;2024-02-26T13:13:22;10.00;;;2.80;;
72198;SDS011;72266;51.056;16.880;2024-02-26T13:16:01;11.00;;;3.70;;
72198;SDS011;72266;51.056;16.880;2024-02-26T13:18:32;9.40;;;3.70;;
72198;SDS011;72266;51.056;16.880;2024-02-26T13:21:08;9.00;;;3.00;;
72198;SDS011;72266;51.056;16.880;2024-02-26T13:23:40;9.20;;;3.20;;
72198;SDS011;72266;51.056;16.880;2024-02-26T13:26:11;8.50;;;2.90;;
72198;SDS011;72266;51.056;16.880;2024-02-26T13:28:41;11.30;;;3.60;;
72198;SDS011;72266;51.056;16.880;2024-02-26T13:31:11;9.80;;;3.20;;
72198;SDS011;72266;51.056;16.880;2024-02-26T13:33:41;11.10;;;3.40;;
72198;SDS011;72266;51.056;16.880;2024-02-26T13:36:17;8.70;;;2.90;;
72198;SDS011;72266;51.056;16.880;2024-02-26T13:38:52;10.10;;;3.20;;
72198;SDS011;72266;51.056;16.880;2024-02-26T13:41:22;9.00;;;3.10;;
72198;SDS011;72266;51.056;16.880;2024-02-26T13:43:52;9.30;;;3.50;;
72198;SDS011;72266;51.056;16.880;2024-02-26T13:46:22;10.20;;;3.60;;
72198;SDS011;72266;51.056;16.880;2024-02-26T13:48:55;8.40;;;3.10;;
72198;SDS011;72266;51.056;16.880;2024-02-26T13:51:25;10.30;;;3.00;;
72198;SDS011;72266;51.056;16.880;2024-02-26T13:53:57;9.90;;;3.40;;
72198;SDS011;72266;51.056;16.880;2024-02-26T13:56:27;9.80;;;3.10;;
72198;SDS011;72266;51.056;16.880;2024-02-26T13:58:57;9.80;;;3.30;;
72198;SDS011;72266;51.056;16.880;2024-02-26T14:01:28;7.90;;;2.90;;
72198;SDS011;72266;51.056;16.880;2024-02-26T14:04:02;11.40;;;3.20;;
72198;SDS011;72266;51.056;16.880;2024-02-26T14:06:36;10.80;;;3.50;;
72198;SDS011;72266;51.056;16.880;2024-02-26T14:09:10;9.50;;;3.50;;
72198;SDS011;72266;51.056;16.880;2024-02-26T14:11:46;8.90;;;3.30;;
72198;SDS011;72266;51.056;16.880;2024-02-26T14:14:16;9.30;;;3.40;;
72198;SDS011;72266;51.056;16.880;2024-02-26T14:16:47;10.60;;;3.40;;
72198;SDS011;72266;51.056;16.880;2024-02-26T14:19:17;8.10;;;2.70;;
72198;SDS011;72266;51.056;16.880;2024-02-26T14:21:47;8.20;;;3.00;;
72198;SDS011;72266;51.056;16.880;2024-02-26T14:24:17;8.50;;;2.90;;
72198;SDS011;72266;51.056;16.880;2024-02-26T14:26:46;9.00;;;3.30;;
72198;SDS011;72266;51.056;16.880;2024-02-26T14:29:16;15.90;;;5.90;;
72198;SDS011;72266;51.056;16.880;2024-02-26T14:31:46;18.60;;;6.50;;
72198;SDS011;72266;51.056;16.880;2024-02-26T14:34:16;17.70;;;6.40;;
72198;SDS011;72266;51.056;16.880;2024-02-26T14:36:47;16.90;;;6.90;;
72198;SDS011;72266;51.056;16.880;2024-02-26T14:39:17;14.30;;;5.80;;
72198;SDS011;72266;51.056;16.880;2024-02-26T14:41:46;15.40;;;6.90;;